Time;durP1;ratioP1;P1;durP2;ratioP2;P2;SDS_P1;SDS_P2;PMS_P1;PMS_P2;Temp;Humidity;BMP_temperature;BMP_pressure;BME280_temperature;BME280_humidity;BME280_pressure;Samples;Min_cycle;Max_cycle;Signal;HPM_P1;HPM_P2
2022/06/15 00:00:37;;;;;;;2.40;1.90;;;15.90;99.90;;;;;;5072228;28;20458;-69
2022/06/15 00:03:04;;;;;;;7.53;2.87;;;15.80;99.90;;;;;;5073970;28;20458;-68
2022/06/15 00:05:33;;;;;;;3.23;2.97;;;15.80;99.90;;;;;;5073117;28;20545;-68
2022/06/15 00:08:00;;;;;;;4.03;2.53;;;15.70;99.90;;;;;;5071911;28;20464;-69
2022/06/15 00:10:27;;;;;;;2.70;2.50;;;15.80;99.90;;;;;;5073069;28;20496;-69
2022/06/15 00:12:53;;;;;;;3.80;2.90;;;15.70;99.90;;;;;;5080722;28;20477;-69
2022/06/15 00:15:21;;;;;;;4.50;2.80;;;15.60;99.90;;;;;;5074200;28;21028;-69
2022/06/15 00:17:47;;;;;;;5.53;2.73;;;15.50;99.90;;;;;;5075345;28;20497;-68
2022/06/15 00:20:14;;;;;;;3.10;2.80;;;15.40;99.90;;;;;;5076560;28;20472;-68
2022/06/15 00:22:43;;;;;;;5.80;3.03;;;15.30;99.90;;;;;;5080701;28;21116;-68
2022/06/15 00:25:10;;;;;;;6.97;3.40;;;15.30;99.90;;;;;;5077402;28;20844;-69
2022/06/15 00:27:37;;;;;;;6.93;3.10;;;15.30;99.90;;;;;;5074911;28;20464;-69
2022/06/15 00:30:05;;;;;;;4.67;3.20;;;15.30;99.90;;;;;;5077384;28;20515;-69
2022/06/15 00:32:32;;;;;;;4.07;2.87;;;15.40;99.90;;;;;;5076293;28;20461;-69
2022/06/15 00:34:59;;;;;;;4.07;2.90;;;15.30;99.90;;;;;;5074744;28;20807;-69
2022/06/15 00:37:25;;;;;;;5.00;3.90;;;15.20;99.90;;;;;;5070295;28;20449;-69
2022/06/15 00:39:54;;;;;;;4.23;2.93;;;15.10;99.90;;;;;;5071990;28;20458;-69
2022/06/15 00:42:20;;;;;;;6.23;3.17;;;15.10;99.90;;;;;;5077449;28;21006;-70
2022/06/15 00:44:49;;;;;;;3.07;2.80;;;15.10;99.90;;;;;;5073781;28;20466;-69
2022/06/15 00:47:21;;;;;;;5.50;3.37;;;15.10;99.90;;;;;;5071562;28;20482;-69
2022/06/15 00:49:52;;;;;;;3.83;3.03;;;15.10;99.90;;;;;;5073587;28;20489;-68
2022/06/15 00:52:32;;;;;;;7.43;3.80;;;15.10;99.90;;;;;;5076360;28;20548;-69
2022/06/15 00:55:02;;;;;;;5.80;3.60;;;15.10;99.90;;;;;;5073128;28;20473;-69
2022/06/15 00:57:30;;;;;;;4.60;3.70;;;15.10;99.90;;;;;;5074826;28;20525;-69
2022/06/15 00:59:59;;;;;;;4.73;3.13;;;15.10;99.90;;;;;;5073537;28;20508;-69
2022/06/15 01:02:27;;;;;;;5.90;3.50;;;15.00;99.90;;;;;;5074425;28;20468;-69
2022/06/15 01:04:59;;;;;;;6.20;3.53;;;15.00;99.90;;;;;;5073779;28;20814;-68
2022/06/15 01:07:59;;;;;;;8.43;3.57;;;15.10;99.90;;;;;;5076829;28;20476;-69
2022/06/15 01:10:44;;;;;;;3.10;2.30;;;15.10;99.90;;;;;;5072103;28;20433;-68
2022/06/15 01:13:27;;;;;;;5.90;3.13;;;15.10;99.90;;;;;;5081344;28;20454;-69
2022/06/15 01:16:01;;;;;;;3.43;2.40;;;15.20;99.90;;;;;;5075192;28;20444;-68
2022/06/15 01:18:36;;;;;;;5.93;2.57;;;15.20;99.90;;;;;;5075665;28;20466;-69
2022/06/15 01:21:23;;;;;;;3.90;3.20;;;15.20;99.90;;;;;;5076342;28;20460;-68
2022/06/15 01:24:40;;;;;;;4.93;2.53;;;15.10;99.90;;;;;;5076086;28;20441;-69
2022/06/15 01:27:54;;;;;;;4.83;3.13;;;15.00;99.90;;;;;;5077024;28;20817;-69
2022/06/15 01:30:36;;;;;;;4.03;3.10;;;15.00;99.90;;;;;;5065950;28;20439;-69
2022/06/15 01:33:15;;;;;;;6.87;4.07;;;14.90;99.90;;;;;;5072886;28;20437;-69
2022/06/15 01:35:50;;;;;;;6.50;3.03;;;14.90;99.90;;;;;;5074877;28;20537;-69
2022/06/15 01:38:26;;;;;;;3.47;2.63;;;14.90;99.90;;;;;;5073735;28;20458;-69
2022/06/15 01:41:03;;;;;;;3.80;2.50;;;14.90;99.90;;;;;;5070107;28;20454;-69
2022/06/15 01:43:36;;;;;;;3.30;2.10;;;14.90;99.90;;;;;;5069671;28;20499;-69
2022/06/15 01:46:05;;;;;;;4.10;2.80;;;14.90;99.90;;;;;;5074974;28;20429;-69
2022/06/15 01:48:34;;;;;;;3.23;2.90;;;14.90;99.90;;;;;;5071500;28;20486;-68
2022/06/15 01:51:06;;;;;;;3.27;2.97;;;14.90;99.90;;;;;;5077509;28;20472;-69
2022/06/15 01:53:37;;;;;;;4.90;3.07;;;14.90;99.90;;;;;;5074764;28;21380;-69
2022/06/15 01:56:09;;;;;;;7.83;2.57;;;14.90;99.90;;;;;;5076880;28;20429;-69
2022/06/15 01:58:40;;;;;;;4.83;3.53;;;14.90;99.90;;;;;;5073928;28;20948;-69
2022/06/15 02:01:14;;;;;;;3.10;2.80;;;14.80;99.90;;;;;;5072855;28;20450;-68
2022/06/15 02:03:50;;;;;;;4.63;2.73;;;14.70;99.90;;;;;;5080523;28;20545;-69
2022/06/15 02:06:26;;;;;;;4.00;3.13;;;14.60;99.90;;;;;;5069266;28;20630;-68
2022/06/15 02:08:59;;;;;;;6.77;3.80;;;14.60;99.90;;;;;;5068556;28;20485;-69
2022/06/15 02:11:32;;;;;;;4.87;2.40;;;14.60;99.90;;;;;;5069181;28;20457;-68
2022/06/15 02:14:02;;;;;;;2.37;2.17;;;14.60;99.90;;;;;;5078167;28;20473;-69
2022/06/15 02:16:35;;;;;;;5.60;3.23;;;14.60;99.90;;;;;;5074197;28;21208;-69
2022/06/15 02:19:05;;;;;;;3.10;2.57;;;14.50;99.90;;;;;;5076796;28;20461;-69
2022/06/15 02:21:35;;;;;;;9.00;2.60;;;14.40;99.90;;;;;;5072445;28;20861;-69
2022/06/15 02:24:03;;;;;;;19.87;3.00;;;14.40;99.90;;;;;;5073781;28;20521;-69
2022/06/15 02:26:33;;;;;;;2.97;2.43;;;14.30;99.90;;;;;;5069922;28;20485;-68
2022/06/15 02:29:05;;;;;;;5.10;2.53;;;14.20;99.90;;;;;;5078222;28;20456;-67
2022/06/15 02:31:33;;;;;;;4.10;2.83;;;14.20;99.90;;;;;;5073588;28;20545;-69
2022/06/15 02:34:03;;;;;;;3.07;2.77;;;14.10;99.90;;;;;;5073029;28;20457;-69
2022/06/15 02:36:32;;;;;;;3.23;2.90;;;14.20;99.90;;;;;;5075558;28;20483;-69
2022/06/15 02:38:59;;;;;;;5.23;2.53;;;14.20;99.90;;;;;;5073632;28;20446;-68
2022/06/15 02:41:27;;;;;;;5.13;3.27;;;14.20;99.90;;;;;;5078423;28;20454;-69
2022/06/15 02:43:56;;;;;;;4.03;3.33;;;14.20;99.90;;;;;;5075282;28;20472;-69
2022/06/15 02:46:25;;;;;;;8.03;2.40;;;14.20;99.90;;;;;;5074290;28;20460;-68
2022/06/15 02:48:54;;;;;;;4.43;3.77;;;14.20;99.90;;;;;;5078222;28;20474;-69
2022/06/15 02:51:26;;;;;;;2.73;2.40;;;14.20;99.90;;;;;;5075099;28;20436;-68
2022/06/15 02:53:58;;;;;;;6.07;3.30;;;14.10;99.90;;;;;;5077897;28;20459;-69
2022/06/15 02:56:25;;;;;;;6.13;2.70;;;14.10;99.90;;;;;;5073147;28;20477;-68
2022/06/15 02:58:53;;;;;;;8.03;3.57;;;14.00;99.90;;;;;;5078042;28;20923;-69
2022/06/15 03:01:21;;;;;;;7.93;3.20;;;14.00;99.90;;;;;;5069894;28;20457;-69
2022/06/15 03:03:48;;;;;;;5.90;2.37;;;14.10;99.90;;;;;;5075763;28;20522;-68
2022/06/15 03:06:18;;;;;;;9.90;3.20;;;14.00;99.90;;;;;;5075757;28;21069;-68
2022/06/15 03:08:45;;;;;;;5.50;3.20;;;14.00;99.90;;;;;;5074479;28;20482;-69
2022/06/15 03:11:13;;;;;;;4.03;3.13;;;13.90;99.90;;;;;;5072876;28;20455;-70
2022/06/15 03:13:40;;;;;;;4.57;3.00;;;13.90;99.90;;;;;;5079155;28;20457;-69
2022/06/15 03:16:07;;;;;;;7.03;2.90;;;13.90;99.90;;;;;;5083069;28;21020;-69
2022/06/15 03:18:34;;;;;;;12.03;3.20;;;13.80;99.90;;;;;;5080367;28;20458;-69
2022/06/15 03:21:03;;;;;;;4.03;2.87;;;13.80;99.90;;;;;;5082995;28;20537;-69
2022/06/15 03:23:33;;;;;;;5.00;3.30;;;13.80;99.90;;;;;;5081233;28;20542;-70
2022/06/15 03:26:02;;;;;;;9.30;3.33;;;13.70;99.90;;;;;;5080692;28;20458;-70
2022/06/15 03:28:29;;;;;;;4.90;2.40;;;13.80;99.90;;;;;;5083581;28;20446;-70
2022/06/15 03:30:56;;;;;;;7.60;2.90;;;13.80;99.90;;;;;;5075094;28;20462;-70
2022/06/15 03:33:24;;;;;;;4.17;3.37;;;13.80;99.90;;;;;;5081664;28;20528;-70
2022/06/15 03:35:51;;;;;;;4.20;3.70;;;13.80;99.90;;;;;;5086888;28;20465;-70
2022/06/15 03:38:18;;;;;;;4.60;3.20;;;13.90;99.90;;;;;;5077921;28;20450;-70
2022/06/15 03:40:48;;;;;;;6.07;3.03;;;14.00;99.90;;;;;;5073717;28;20453;-69
2022/06/15 03:43:15;;;;;;;3.30;2.73;;;14.00;99.90;;;;;;5079869;28;20473;-69
2022/06/15 03:45:43;;;;;;;11.43;3.97;;;14.00;99.90;;;;;;5073707;28;20432;-69
2022/06/15 03:48:11;;;;;;;3.33;2.60;;;14.00;99.90;;;;;;5080284;28;20472;-69
2022/06/15 03:50:38;;;;;;;4.60;3.13;;;13.90;99.90;;;;;;5076579;28;20474;-70
2022/06/15 03:53:07;;;;;;;4.27;2.83;;;14.00;99.90;;;;;;5081632;28;21248;-70
2022/06/15 03:55:35;;;;;;;3.37;3.07;;;14.00;99.90;;;;;;5083428;28;20442;-69
2022/06/15 03:58:04;;;;;;;9.67;3.80;;;14.00;99.90;;;;;;5080699;28;21024;-69
2022/06/15 04:00:32;;;;;;;5.90;3.77;;;14.10;99.90;;;;;;5079797;28;20458;-70
2022/06/15 04:02:59;;;;;;;4.37;3.70;;;14.20;99.90;;;;;;5072780;28;20462;-69
2022/06/15 04:05:30;;;;;;;5.70;3.60;;;14.20;99.90;;;;;;5071041;28;20985;-68
2022/06/15 04:10:42;;;;;;;7.83;3.30;;;14.20;99.90;;;;;;5084056;28;20462;-69
2022/06/15 04:13:10;;;;;;;4.07;3.67;;;14.20;99.90;;;;;;5077787;28;20636;-68
2022/06/15 04:15:37;;;;;;;3.77;3.30;;;14.10;99.90;;;;;;5082294;28;20458;-69
2022/06/15 04:18:04;;;;;;;6.10;2.67;;;14.10;99.90;;;;;;5083119;28;20479;-69
2022/06/15 04:20:36;;;;;;;4.80;3.00;;;14.20;99.90;;;;;;5078838;28;20458;-68
2022/06/15 04:23:05;;;;;;;4.43;3.40;;;14.20;99.90;;;;;;5074504;28;20459;-67
2022/06/15 04:25:34;;;;;;;3.40;2.87;;;14.30;99.90;;;;;;5076826;28;20429;-69
2022/06/15 04:28:01;;;;;;;3.57;3.27;;;14.40;99.90;;;;;;5075678;28;20478;-69
2022/06/15 04:30:29;;;;;;;10.53;4.50;;;14.40;99.90;;;;;;5078831;28;20852;-69
2022/06/15 04:32:56;;;;;;;3.90;3.60;;;14.40;99.90;;;;;;5077884;28;20543;-68
2022/06/15 04:35:23;;;;;;;5.23;4.37;;;14.30;99.90;;;;;;5084707;28;21112;-69
2022/06/15 04:37:50;;;;;;;2.97;2.67;;;14.30;99.90;;;;;;5077228;28;20478;-68
2022/06/15 04:40:18;;;;;;;11.00;3.37;;;14.30;99.90;;;;;;5062622;28;20457;-69
2022/06/15 04:42:45;;;;;;;4.40;4.00;;;14.40;99.90;;;;;;5061467;28;20601;-68
2022/06/15 04:45:14;;;;;;;5.10;3.50;;;14.40;99.90;;;;;;5080612;28;20439;-68
2022/06/15 04:47:42;;;;;;;4.80;2.87;;;14.50;99.90;;;;;;5075796;28;20478;-68
2022/06/15 04:50:13;;;;;;;4.57;4.17;;;14.50;99.90;;;;;;5077279;28;20965;-69
2022/06/15 04:52:41;;;;;;;10.30;3.27;;;14.50;99.90;;;;;;5071922;28;21011;-69
2022/06/15 04:55:08;;;;;;;14.10;5.50;;;14.60;99.90;;;;;;5080260;28;20454;-68
2022/06/15 04:57:35;;;;;;;4.50;3.10;;;14.70;99.90;;;;;;5081683;28;20501;-69
2022/06/15 05:00:05;;;;;;;5.37;3.30;;;14.80;99.90;;;;;;5082802;28;20417;-69
2022/06/15 05:02:32;;;;;;;4.13;3.73;;;15.10;99.90;;;;;;5085629;28;20432;-69
2022/06/15 05:05:01;;;;;;;5.30;3.40;;;15.20;99.90;;;;;;5078002;28;20457;-69
2022/06/15 05:07:28;;;;;;;3.53;3.17;;;15.30;99.90;;;;;;5066819;28;20479;-70
2022/06/15 05:09:58;;;;;;;3.70;3.00;;;15.40;99.90;;;;;;5076599;28;20474;-69
2022/06/15 05:12:25;;;;;;;6.93;3.50;;;15.40;99.90;;;;;;5081333;28;20534;-70
2022/06/15 05:14:52;;;;;;;14.13;4.23;;;15.80;99.90;;;;;;5080635;28;20551;-68
2022/06/15 05:17:20;;;;;;;4.70;3.27;;;15.90;99.90;;;;;;5082217;28;20470;-68
2022/06/15 05:19:47;;;;;;;8.10;3.27;;;16.00;99.90;;;;;;5083061;28;20461;-69
2022/06/15 05:22:16;;;;;;;4.77;3.23;;;16.20;99.90;;;;;;5085204;28;20628;-69
2022/06/15 05:24:43;;;;;;;4.00;3.13;;;16.60;99.90;;;;;;5085012;28;20846;-69
2022/06/15 05:27:10;;;;;;;5.60;3.30;;;17.00;99.90;;;;;;5082368;28;20458;-69
2022/06/15 05:29:38;;;;;;;5.87;3.50;;;17.10;99.90;;;;;;5078955;28;20845;-68
2022/06/15 05:32:06;;;;;;;9.30;3.37;;;17.00;99.90;;;;;;5084665;28;20619;-69
2022/06/15 05:34:33;;;;;;;6.13;3.73;;;17.50;99.90;;;;;;5083895;28;20525;-69
2022/06/15 05:37:00;;;;;;;4.90;3.80;;;17.90;99.90;;;;;;5081351;28;21210;-69
2022/06/15 05:39:28;;;;;;;5.10;3.50;;;18.10;99.90;;;;;;5081391;28;20469;-69
2022/06/15 05:41:55;;;;;;;15.83;6.40;;;18.10;99.90;;;;;;5079041;28;20478;-69
2022/06/15 05:47:04;;;;;;;12.90;3.50;;;18.30;99.90;;;;;;5064763;28;20480;-70
2022/06/15 05:49:32;;;;;;;10.93;3.77;;;18.70;99.90;;;;;;5083461;28;20878;-70
2022/06/15 05:52:00;;;;;;;5.17;3.63;;;18.70;99.90;;;;;;5079244;28;20447;-70
2022/06/15 05:54:28;;;;;;;11.07;4.00;;;19.00;99.90;;;;;;5082631;28;20446;-69
2022/06/15 05:56:55;;;;;;;3.73;3.33;;;19.20;99.90;;;;;;5084339;28;20466;-69
2022/06/15 05:59:22;;;;;;;14.57;4.60;;;19.60;99.90;;;;;;5082642;28;20481;-69
2022/06/15 06:01:49;;;;;;;9.60;4.70;;;19.60;99.90;;;;;;5079187;28;20447;-69
2022/06/15 06:04:18;;;;;;;6.50;4.37;;;19.60;99.90;;;;;;5077979;28;20434;-69
2022/06/15 06:06:45;;;;;;;9.73;3.90;;;19.20;99.90;;;;;;5081012;28;20478;-69
2022/06/15 06:09:12;;;;;;;7.57;3.80;;;19.60;99.90;;;;;;5079508;28;20439;-69
2022/06/15 06:11:41;;;;;;;4.50;3.67;;;19.60;99.90;;;;;;5080727;28;20825;-70
2022/06/15 06:14:09;;;;;;;4.50;3.83;;;20.00;99.90;;;;;;5083751;28;20489;-70
2022/06/15 06:16:36;;;;;;;24.47;4.27;;;20.30;99.90;;;;;;5079268;28;20589;-69
2022/06/15 06:19:02;;;;;;;8.00;3.90;;;20.60;99.90;;;;;;5080540;28;20525;-70
2022/06/15 06:21:29;;;;;;;8.03;4.33;;;20.80;99.90;;;;;;5078158;28;20435;-69
2022/06/15 06:23:56;;;;;;;7.00;4.00;;;21.00;99.90;;;;;;5080291;28;20438;-69
2022/06/15 06:26:26;;;;;;;3.90;3.50;;;20.80;99.90;;;;;;5083308;28;20478;-69
2022/06/15 06:28:56;;;;;;;3.80;3.20;;;20.70;99.90;;;;;;5084641;28;20450;-69
2022/06/15 06:31:23;;;;;;;5.57;4.40;;;20.80;99.90;;;;;;5077711;28;21048;-69
2022/06/15 06:33:51;;;;;;;5.40;4.90;;;20.70;99.90;;;;;;5078834;28;20512;-69
2022/06/15 06:36:30;;;;;;;6.43;5.00;;;20.90;99.90;;;;;;5081169;28;20946;-70
2022/06/15 06:38:57;;;;;;;6.70;5.33;;;20.60;99.90;;;;;;5080307;28;20453;-69
2022/06/15 06:41:26;;;;;;;6.97;4.20;;;20.50;99.90;;;;;;5079383;28;20955;-69
2022/06/15 06:43:55;;;;;;;7.10;4.97;;;21.00;99.90;;;;;;5083938;28;20446;-69
2022/06/15 06:46:22;;;;;;;6.27;4.13;;;21.70;99.90;;;;;;5082770;28;20849;-69
2022/06/15 06:48:49;;;;;;;7.03;6.43;;;21.80;99.90;;;;;;5085066;28;20478;-69
2022/06/15 06:51:16;;;;;;;11.77;5.33;;;21.80;99.90;;;;;;5087111;28;20658;-69
2022/06/15 06:53:43;;;;;;;10.33;4.73;;;22.20;99.90;;;;;;5085004;28;20609;-70
2022/06/15 06:56:12;;;;;;;5.00;4.50;;;22.50;99.90;;;;;;5085441;28;20471;-69
2022/06/15 06:58:38;;;;;;;4.93;4.43;;;22.80;99.90;;;;;;5084873;28;20592;-70
2022/06/15 07:01:08;;;;;;;4.23;3.83;;;22.40;99.90;;;;;;5082894;28;20510;-72
2022/06/15 07:03:36;;;;;;;5.33;3.43;;;23.00;99.90;;;;;;5083915;28;20967;-70
2022/06/15 07:06:05;;;;;;;5.20;4.27;;;23.70;99.90;;;;;;5085405;28;20880;-70
2022/06/15 07:08:32;;;;;;;5.87;3.97;;;23.90;99.90;;;;;;5085335;28;20544;-70
2022/06/15 07:11:00;;;;;;;8.70;4.30;;;24.20;99.90;;;;;;5082156;28;20484;-70
2022/06/15 07:13:27;;;;;;;4.23;3.83;;;24.50;99.90;;;;;;5083923;28;20442;-70
2022/06/15 07:15:54;;;;;;;5.30;4.80;;;24.10;99.90;;;;;;5082395;28;20660;-70
2022/06/15 07:18:22;;;;;;;8.03;3.93;;;24.20;99.90;;;;;;5086414;28;20450;-69
2022/06/15 07:20:49;;;;;;;6.13;3.73;;;24.30;99.90;;;;;;5085249;28;20449;-71
2022/06/15 07:23:16;;;;;;;4.60;4.20;;;24.40;99.90;;;;;;5085148;28;20445;-70
2022/06/15 07:25:43;;;;;;;9.30;4.17;;;24.60;99.90;;;;;;5081421;28;20463;-69
2022/06/15 07:28:10;;;;;;;4.90;3.60;;;25.10;99.90;;;;;;5084955;28;20900;-69
2022/06/15 07:30:38;;;;;;;6.60;4.20;;;24.70;99.90;;;;;;5082401;28;20473;-68
2022/06/15 07:33:05;;;;;;;3.63;3.13;;;24.70;99.90;;;;;;5081272;28;20454;-69
2022/06/15 07:35:36;;;;;;;10.80;4.17;;;25.30;99.90;;;;;;5085207;28;20452;-69
2022/06/15 07:38:03;;;;;;;3.73;3.43;;;25.80;99.90;;;;;;5080037;28;20939;-69
2022/06/15 07:40:30;;;;;;;4.87;3.33;;;26.40;99.90;;;;;;5083178;28;20458;-69
2022/06/15 07:42:57;;;;;;;6.93;4.10;;;26.40;99.90;;;;;;5082939;28;20438;-69
2022/06/15 07:45:25;;;;;;;3.80;3.50;;;26.50;99.60;;;;;;5082880;28;20450;-69
2022/06/15 07:50:40;;;;;;;3.70;3.20;;;27.20;98.70;;;;;;5076621;28;20485;-69
2022/06/15 07:53:09;;;;;;;6.23;3.03;;;27.20;97.10;;;;;;5084254;28;20472;-69
2022/06/15 07:55:39;;;;;;;4.53;2.97;;;26.50;97.80;;;;;;5082656;28;20480;-69
2022/06/15 07:58:07;;;;;;;4.10;2.80;;;26.70;98.60;;;;;;5084203;28;20640;-68
2022/06/15 08:00:39;;;;;;;3.30;2.50;;;26.70;98.40;;;;;;5080903;28;20530;-69
2022/06/15 08:03:07;;;;;;;9.33;3.00;;;26.90;98.40;;;;;;5085641;28;20465;-70
2022/06/15 08:05:38;;;;;;;4.90;2.97;;;27.10;97.70;;;;;;5083923;28;20438;-70
2022/06/15 08:08:09;;;;;;;4.47;3.13;;;27.70;97.70;;;;;;5080437;28;20470;-69
2022/06/15 08:10:36;;;;;;;3.43;2.70;;;27.70;98.50;;;;;;5083122;28;20482;-69
2022/06/15 08:13:04;;;;;;;3.50;2.33;;;28.40;95.80;;;;;;5083454;28;20449;-69
2022/06/15 08:15:31;;;;;;;5.73;3.60;;;27.70;95.30;;;;;;5078661;28;20443;-69
2022/06/15 08:18:04;;;;;;;5.07;2.20;;;27.70;96.10;;;;;;5082791;28;20509;-69
2022/06/15 08:20:36;;;;;;;4.77;3.17;;;27.50;96.50;;;;;;5079684;28;20631;-70
2022/06/15 08:23:13;;;;;;;3.13;2.57;;;27.90;96.40;;;;;;5079355;28;20443;-69
2022/06/15 08:25:43;;;;;;;3.43;2.53;;;28.30;95.30;;;;;;5080778;28;20455;-69
2022/06/15 08:28:11;;;;;;;5.60;2.40;;;27.80;94.80;;;;;;5082380;28;20458;-69
2022/06/15 08:30:39;;;;;;;4.30;3.07;;;28.00;95.90;;;;;;5079369;28;20548;-69
2022/06/15 08:33:09;;;;;;;3.23;2.90;;;28.00;94.20;;;;;;5083457;28;20450;-69
2022/06/15 08:35:37;;;;;;;3.03;2.57;;;28.30;94.70;;;;;;5083546;28;20529;-69
2022/06/15 08:38:04;;;;;;;2.70;2.40;;;28.60;92.90;;;;;;5085520;28;20465;-69
2022/06/15 08:40:42;;;;;;;3.87;2.67;;;29.00;92.60;;;;;;5080141;28;20550;-69
2022/06/15 08:43:16;;;;;;;3.70;2.40;;;28.80;91.50;;;;;;5081779;28;20454;-69
2022/06/15 08:45:47;;;;;;;6.07;3.47;;;29.10;92.10;;;;;;5082624;28;21051;-70
2022/06/15 08:48:37;;;;;;;4.53;2.23;;;29.70;90.30;;;;;;5080590;28;20435;-70
2022/06/15 08:51:12;;;;;;;4.87;2.80;;;29.40;90.70;;;;;;5083083;28;20479;-70
2022/06/15 08:53:47;;;;;;;2.80;2.57;;;29.60;90.30;;;;;;5084453;28;20527;-70
2022/06/15 08:56:21;;;;;;;3.40;2.53;;;29.30;87.80;;;;;;5078337;28;20491;-69
2022/06/15 08:58:53;;;;;;;3.77;3.37;;;29.80;85.30;;;;;;5084485;28;20517;-70
2022/06/15 09:01:33;;;;;;;4.50;2.93;;;29.90;87.80;;;;;;5077716;28;20457;-70
2022/06/15 09:04:11;;;;;;;4.30;2.60;;;30.10;85.30;;;;;;5085884;28;21049;-70
2022/06/15 09:06:48;;;;;;;4.60;3.07;;;30.40;82.80;;;;;;5080330;28;20462;-70
2022/06/15 09:09:30;;;;;;;5.83;2.20;;;29.90;84.70;;;;;;5081759;28;20438;-69
2022/06/15 09:15:03;;;;;;;3.30;2.13;;;29.50;85.10;;;;;;5080253;28;20986;-70
2022/06/15 09:17:32;;;;;;;6.50;2.80;;;30.00;85.40;;;;;;5075126;28;20481;-70
2022/06/15 09:20:04;;;;;;;6.83;3.20;;;29.80;81.10;;;;;;5079519;28;20466;-71
2022/06/15 09:22:35;;;;;;;2.90;1.97;;;29.70;85.20;;;;;;5080221;28;21041;-69
2022/06/15 09:25:09;;;;;;;5.33;2.53;;;30.70;83.10;;;;;;5083004;28;20508;-70
2022/06/15 09:27:41;;;;;;;3.90;3.30;;;31.10;79.70;;;;;;5079447;28;20555;-73
2022/06/15 09:30:14;;;;;;;3.30;2.40;;;30.90;81.50;;;;;;5078715;28;21390;-70
2022/06/15 09:32:44;;;;;;;3.30;2.40;;;31.40;80.10;;;;;;5080152;28;20489;-69
2022/06/15 09:35:16;;;;;;;5.80;2.87;;;31.70;80.00;;;;;;5077604;28;20589;-70
2022/06/15 09:37:45;;;;;;;3.43;2.50;;;32.10;79.60;;;;;;5082923;28;20469;-70
2022/06/15 09:40:14;;;;;;;3.67;2.90;;;32.20;76.60;;;;;;5079984;28;20523;-69
2022/06/15 09:42:51;;;;;;;5.63;3.10;;;32.40;73.70;;;;;;5078970;28;20514;-69
2022/06/15 09:45:26;;;;;;;8.07;3.77;;;32.40;71.10;;;;;;5077621;28;21353;-69
2022/06/15 09:48:01;;;;;;;3.77;3.10;;;32.20;72.80;;;;;;5079296;28;20505;-69
2022/06/15 09:50:38;;;;;;;5.27;3.17;;;31.60;70.40;;;;;;5079164;28;20446;-70
2022/06/15 09:53:19;;;;;;;3.17;2.80;;;31.80;72.50;;;;;;5080631;28;20552;-70
2022/06/15 09:55:49;;;;;;;5.80;3.17;;;32.00;68.70;;;;;;5085077;28;20949;-71
2022/06/15 09:58:20;;;;;;;3.13;2.60;;;32.40;69.50;;;;;;5080769;28;20447;-70
2022/06/15 10:00:49;;;;;;;3.73;2.93;;;32.50;67.50;;;;;;5080228;28;20467;-71
2022/06/15 10:03:22;;;;;;;4.50;3.13;;;32.70;69.80;;;;;;5081163;28;20463;-70
2022/06/15 10:05:50;;;;;;;7.70;3.30;;;32.20;67.60;;;;;;5082712;28;20474;-70
2022/06/15 10:08:18;;;;;;;5.13;3.30;;;32.30;64.50;;;;;;5079990;28;20451;-70
2022/06/15 10:10:49;;;;;;;6.20;3.00;;;32.70;67.30;;;;;;5080962;28;20539;-70
2022/06/15 10:13:33;;;;;;;5.57;3.70;;;33.20;66.10;;;;;;5082288;28;21045;-69
2022/06/15 10:16:01;;;;;;;5.50;2.90;;;33.00;65.80;;;;;;5079749;28;20876;-70
2022/06/15 10:18:35;;;;;;;5.00;3.00;;;33.60;67.70;;;;;;5081374;28;20453;-70
2022/06/15 10:21:07;;;;;;;3.43;2.97;;;33.70;63.20;;;;;;5077175;28;20440;-71
2022/06/15 10:23:39;;;;;;;3.53;2.70;;;33.60;61.80;;;;;;5081868;28;20930;-70
2022/06/15 10:26:10;;;;;;;5.20;3.50;;;33.80;59.00;;;;;;5082855;28;20929;-69
2022/06/15 10:28:41;;;;;;;4.00;3.60;;;33.70;59.60;;;;;;5078444;28;20485;-69
2022/06/15 10:31:14;;;;;;;4.60;2.40;;;33.20;59.50;;;;;;5076291;28;20484;-69
2022/06/15 10:33:44;;;;;;;4.93;4.37;;;33.50;59.90;;;;;;5078943;28;20442;-69
2022/06/15 10:36:22;;;;;;;4.00;2.60;;;34.10;60.60;;;;;;5081690;28;20471;-70
2022/06/15 10:38:55;;;;;;;10.70;3.00;;;34.60;59.10;;;;;;5076501;28;20449;-70
2022/06/15 10:41:48;;;;;;;2.80;2.43;;;34.50;58.60;;;;;;5078558;28;20448;-70
2022/06/15 10:44:28;;;;;;;3.63;2.97;;;34.50;56.40;;;;;;5078912;28;20453;-69
2022/06/15 10:46:59;;;;;;;8.27;3.00;;;34.20;56.40;;;;;;5077079;28;20969;-69
2022/06/15 10:49:29;;;;;;;8.47;3.53;;;34.40;55.50;;;;;;5081969;28;20881;-70
2022/06/15 10:51:56;;;;;;;5.93;2.93;;;34.50;55.70;;;;;;5075079;28;20563;-71
2022/06/15 11:02:06;;;;;;;2.87;2.50;;;34.40;55.50;;;;;;5079587;28;20550;-69
2022/06/15 11:03:16;;;;;;;8.87;2.63;;;34.80;55.40;;;;;;5072114;28;20954;-72
2022/06/15 11:05:45;;;;;;;5.93;2.83;;;35.00;55.30;;;;;;5081059;28;20452;-71
2022/06/15 11:08:17;;;;;;;4.07;2.87;;;34.90;56.80;;;;;;5082944;28;20479;-71
2022/06/15 11:10:46;;;;;;;3.77;2.77;;;35.00;53.60;;;;;;5082357;28;20610;-70
2022/06/15 11:13:30;;;;;;;3.60;2.80;;;35.60;52.90;;;;;;5081323;28;20444;-70
2022/06/15 11:18:46;;;;;;;3.60;2.80;;;34.20;53.50;;;;;;5082391;28;20953;-71
2022/06/15 11:21:16;;;;;;;7.63;2.47;;;35.10;52.90;;;;;;5082226;28;20444;-70
2022/06/15 11:23:50;;;;;;;5.20;3.03;;;35.30;54.10;;;;;;5082561;28;20496;-70
2022/06/15 11:29:15;;;;;;;3.17;2.83;;;36.20;54.60;;;;;;5066179;28;20768;-70
2022/06/15 11:31:44;;;;;;;2.87;2.17;;;36.40;52.80;;;;;;5082922;28;20492;-71
2022/06/15 11:34:19;;;;;;;6.50;2.40;;;35.80;53.00;;;;;;5084250;28;20520;-71
2022/06/15 11:36:53;;;;;;;5.20;2.43;;;35.50;52.20;;;;;;5086140;28;20475;-70
2022/06/15 11:39:25;;;;;;;4.77;2.00;;;35.00;53.00;;;;;;5080784;28;20454;-69
2022/06/15 11:41:54;;;;;;;3.30;2.40;;;35.20;52.90;;;;;;5079600;28;20457;-70
2022/06/15 11:44:24;;;;;;;5.23;2.10;;;36.00;50.30;;;;;;5084135;28;20524;-70
2022/06/15 11:47:06;;;;;;;4.27;3.27;;;35.80;52.50;;;;;;5083278;28;20526;-70
2022/06/15 11:49:44;;;;;;;2.93;2.27;;;35.20;50.00;;;;;;5080659;28;20457;-70
2022/06/15 11:52:22;;;;;;;7.80;2.67;;;35.20;50.70;;;;;;5086437;28;20563;-71
2022/06/15 11:55:08;;;;;;;5.60;5.20;;;35.00;51.70;;;;;;5086983;28;20448;-71
2022/06/15 11:57:42;;;;;;;3.20;2.23;;;35.50;50.70;;;;;;5082351;28;20480;-70
2022/06/15 12:00:22;;;;;;;3.40;3.10;;;35.60;52.50;;;;;;5078935;28;20465;-71
2022/06/15 12:03:13;;;;;;;3.77;2.43;;;35.60;51.90;;;;;;5086809;28;20440;-71
2022/06/15 12:05:46;;;;;;;7.10;2.60;;;36.20;51.00;;;;;;5086409;28;20461;-71
2022/06/15 12:08:25;;;;;;;3.90;3.07;;;36.60;50.30;;;;;;5083126;28;20544;-70
2022/06/15 12:10:54;;;;;;;4.53;4.13;;;37.60;49.90;;;;;;5085552;28;20527;-71
2022/06/15 12:13:45;;;;;;;3.60;3.03;;;37.80;49.90;;;;;;5082258;28;20481;-71
2022/06/15 12:16:17;;;;;;;3.07;2.63;;;37.80;47.70;;;;;;5084155;28;20565;-70
2022/06/15 12:19:03;;;;;;;4.70;2.20;;;36.90;46.90;;;;;;5087372;28;20536;-70
2022/06/15 12:21:37;;;;;;;2.60;2.40;;;37.00;49.20;;;;;;5085199;28;20526;-71
2022/06/15 12:24:10;;;;;;;2.10;1.90;;;37.40;50.20;;;;;;5084588;28;20458;-70
2022/06/15 12:26:45;;;;;;;3.40;2.83;;;37.70;49.00;;;;;;5084359;28;20913;-70
2022/06/15 12:29:25;;;;;;;3.67;2.57;;;37.40;48.30;;;;;;5085397;28;20478;-69
2022/06/15 12:32:18;;;;;;;4.07;2.10;;;37.40;48.20;;;;;;5085113;28;20985;-69
2022/06/15 12:34:55;;;;;;;4.03;2.53;;;37.80;48.00;;;;;;5083907;28;20461;-71
2022/06/15 12:37:28;;;;;;;7.30;2.37;;;37.90;48.80;;;;;;5079188;28;20497;-70
2022/06/15 12:40:07;;;;;;;3.00;1.97;;;36.70;49.30;;;;;;5080553;28;20435;-70
2022/06/15 12:42:34;;;;;;;4.20;2.70;;;37.10;48.30;;;;;;5084392;28;20461;-70
2022/06/15 12:45:06;;;;;;;2.97;2.27;;;36.30;49.30;;;;;;5085627;28;20983;-69
2022/06/15 12:47:34;;;;;;;4.10;2.40;;;36.00;48.70;;;;;;5082847;28;20646;-70
2022/06/15 12:50:38;;;;;;;3.60;2.50;;;36.50;48.70;;;;;;5086077;28;20833;-69
2022/06/15 12:53:15;;;;;;;2.33;2.07;;;35.90;48.20;;;;;;5084115;28;20578;-71
2022/06/15 12:55:48;;;;;;;3.07;2.20;;;35.90;49.00;;;;;;5087278;28;20523;-70
2022/06/15 12:58:25;;;;;;;4.43;2.60;;;36.10;48.00;;;;;;5084591;28;20448;-70
2022/06/15 13:00:57;;;;;;;2.53;2.33;;;36.50;49.00;;;;;;5077984;28;20549;-71
2022/06/15 13:03:40;;;;;;;2.40;1.87;;;36.80;48.90;;;;;;5085649;28;20437;-72
2022/06/15 13:06:23;;;;;;;6.17;2.70;;;36.70;48.30;;;;;;5079343;28;20564;-70
2022/06/15 13:09:18;;;;;;;4.03;2.70;;;36.60;49.10;;;;;;5083095;28;20456;-70
2022/06/15 13:11:51;;;;;;;2.60;2.40;;;36.50;47.80;;;;;;5083772;28;20905;-70
2022/06/15 13:14:21;;;;;;;5.20;3.07;;;35.70;47.70;;;;;;5084423;28;20572;-70
2022/06/15 13:17:02;;;;;;;6.73;2.90;;;35.30;48.30;;;;;;5086751;28;20560;-71
2022/06/15 13:19:32;;;;;;;2.83;2.37;;;36.40;48.40;;;;;;5084846;28;20547;-69
2022/06/15 13:22:08;;;;;;;2.83;2.40;;;36.50;47.90;;;;;;5083501;28;21158;-69
2022/06/15 13:24:52;;;;;;;7.53;2.43;;;35.60;48.70;;;;;;5084180;28;20567;-70
2022/06/15 13:27:23;;;;;;;2.40;2.20;;;35.80;47.70;;;;;;5083413;28;20463;-69
2022/06/15 13:29:52;;;;;;;10.80;2.90;;;35.70;47.80;;;;;;5078500;28;20857;-69